sensor_id;sensor_type;location;lat;lon;timestamp;temperature;humidity
69823;SHT31;57119;52.516;13.508;2022-10-01T00:00:11;5.85;99.49
69823;SHT31;57119;52.516;13.508;2022-10-01T00:02:37;5.83;99.59
69823;SHT31;57119;52.516;13.508;2022-10-01T00:05:04;5.80;99.55
69823;SHT31;57119;52.516;13.508;2022-10-01T00:07:36;5.79;99.49
69823;SHT31;57119;52.516;13.508;2022-10-01T00:10:03;5.76;99.28
69823;SHT31;57119;52.516;13.508;2022-10-01T00:12:28;5.77;99.37
69823;SHT31;57119;52.516;13.508;2022-10-01T00:14:53;5.70;99.74
69823;SHT31;57119;52.516;13.508;2022-10-01T00:17:19;5.76;99.43
69823;SHT31;57119;52.516;13.508;2022-10-01T00:19:44;5.73;99.41
69823;SHT31;57119;52.516;13.508;2022-10-01T00:22:10;5.73;99.20
69823;SHT31;57119;52.516;13.508;2022-10-01T00:24:35;5.70;98.81
69823;SHT31;57119;52.516;13.508;2022-10-01T00:27:01;5.67;99.00
69823;SHT31;57119;52.516;13.508;2022-10-01T00:29:27;5.65;98.99
69823;SHT31;57119;52.516;13.508;2022-10-01T00:31:52;5.66;99.04
69823;SHT31;57119;52.516;13.508;2022-10-01T00:34:17;5.62;99.12
69823;SHT31;57119;52.516;13.508;2022-10-01T00:36:43;5.59;99.16
69823;SHT31;57119;52.516;13.508;2022-10-01T00:39:09;5.53;99.47
69823;SHT31;57119;52.516;13.508;2022-10-01T00:41:35;5.56;99.22
69823;SHT31;57119;52.516;13.508;2022-10-01T00:44:25;5.48;99.90
69823;SHT31;57119;52.516;13.508;2022-10-01T00:46:48;5.52;99.91
69823;SHT31;57119;52.516;13.508;2022-10-01T00:49:17;5.43;99.99
69823;SHT31;57119;52.516;13.508;2022-10-01T00:51:48;5.52;99.99
69823;SHT31;57119;52.516;13.508;2022-10-01T00:54:22;5.50;99.99
69823;SHT31;57119;52.516;13.508;2022-10-01T00:56:49;5.52;99.96
69823;SHT31;57119;52.516;13.508;2022-10-01T00:59:16;5.52;99.89
69823;SHT31;57119;52.516;13.508;2022-10-01T01:01:42;5.50;99.96
69823;SHT31;57119;52.516;13.508;2022-10-01T01:04:09;5.46;99.99
69823;SHT31;57119;52.516;13.508;2022-10-01T01:06:45;5.49;99.72
69823;SHT31;57119;52.516;13.508;2022-10-01T01:09:12;5.49;99.62
69823;SHT31;57119;52.516;13.508;2022-10-01T01:14:28;5.41;99.31
69823;SHT31;57119;52.516;13.508;2022-10-01T01:17:01;5.41;99.37
69823;SHT31;57119;52.516;13.508;2022-10-01T01:20:40;5.39;99.69
69823;SHT31;57119;52.516;13.508;2022-10-01T01:22:58;5.38;99.48
69823;SHT31;57119;52.516;13.508;2022-10-01T01:25:32;5.36;99.99
69823;SHT31;57119;52.516;13.508;2022-10-01T01:28:17;5.31;99.99
69823;SHT31;57119;52.516;13.508;2022-10-01T01:30:47;5.11;99.99
69823;SHT31;57119;52.516;13.508;2022-10-01T01:33:16;5.15;99.99
69823;SHT31;57119;52.516;13.508;2022-10-01T01:36:00;5.20;99.99
69823;SHT31;57119;52.516;13.508;2022-10-01T01:38:33;5.24;99.99
69823;SHT31;57119;52.516;13.508;2022-10-01T01:41:01;5.27;99.99
69823;SHT31;57119;52.516;13.508;2022-10-01T01:43:30;5.32;99.99
69823;SHT31;57119;52.516;13.508;2022-10-01T01:45:59;5.24;99.99
69823;SHT31;57119;52.516;13.508;2022-10-01T01:48:25;5.17;99.99
69823;SHT31;57119;52.516;13.508;2022-10-01T01:50:56;5.22;99.99
69823;SHT31;57119;52.516;13.508;2022-10-01T01:53:23;5.21;99.99
69823;SHT31;57119;52.516;13.508;2022-10-01T01:55:50;5.17;99.99
69823;SHT31;57119;52.516;13.508;2022-10-01T01:58:17;5.29;99.99
69823;SHT31;57119;52.516;13.508;2022-10-01T02:00:44;5.29;99.99
69823;SHT31;57119;52.516;13.508;2022-10-01T02:03:10;5.28;99.99
69823;SHT31;57119;52.516;13.508;2022-10-01T02:05:42;5.17;99.99
69823;SHT31;57119;52.516;13.508;2022-10-01T02:13:57;5.25;99.99
69823;SHT31;57119;52.516;13.508;2022-10-01T02:16:59;5.24;99.99
69823;SHT31;57119;52.516;13.508;2022-10-01T02:22:11;5.34;99.99
69823;SHT31;57119;52.516;13.508;2022-10-01T02:24:43;5.34;99.99
69823;SHT31;57119;52.516;13.508;2022-10-01T02:27:19;5.36;99.99
69823;SHT31;57119;52.516;13.508;2022-10-01T02:29:45;5.41;99.99
69823;SHT31;57119;52.516;13.508;2022-10-01T02:32:12;5.34;99.99
69823;SHT31;57119;52.516;13.508;2022-10-01T02:34:39;5.15;99.99
69823;SHT31;57119;52.516;13.508;2022-10-01T02:37:06;5.29;99.99
69823;SHT31;57119;52.516;13.508;2022-10-01T02:39:33;5.24;99.99
69823;SHT31;57119;52.516;13.508;2022-10-01T02:42:00;5.29;99.99
69823;SHT31;57119;52.516;13.508;2022-10-01T02:44:32;5.36;99.99
69823;SHT31;57119;52.516;13.508;2022-10-01T02:47:20;5.38;99.99
69823;SHT31;57119;52.516;13.508;2022-10-01T02:49:48;5.42;99.99
69823;SHT31;57119;52.516;13.508;2022-10-01T02:52:33;5.36;99.99
69823;SHT31;57119;52.516;13.508;2022-10-01T02:55:16;5.29;99.99
69823;SHT31;57119;52.516;13.508;2022-10-01T02:57:43;5.60;99.99
69823;SHT31;57119;52.516;13.508;2022-10-01T03:00:14;5.46;99.99
69823;SHT31;57119;52.516;13.508;2022-10-01T03:02:40;5.42;99.99
69823;SHT31;57119;52.516;13.508;2022-10-01T03:05:06;5.46;99.99
69823;SHT31;57119;52.516;13.508;2022-10-01T03:07:33;5.63;99.99
69823;SHT31;57119;52.516;13.508;2022-10-01T03:09:59;5.80;99.99
69823;SHT31;57119;52.516;13.508;2022-10-01T03:12:25;5.76;99.99
69823;SHT31;57119;52.516;13.508;2022-10-01T03:14:50;5.93;99.99
69823;SHT31;57119;52.516;13.508;2022-10-01T03:17:17;5.80;99.99
69823;SHT31;57119;52.516;13.508;2022-10-01T03:19:43;5.93;99.99
69823;SHT31;57119;52.516;13.508;2022-10-01T03:22:11;5.97;99.99
69823;SHT31;57119;52.516;13.508;2022-10-01T03:24:37;6.03;99.99
69823;SHT31;57119;52.516;13.508;2022-10-01T03:27:02;6.14;99.99
69823;SHT31;57119;52.516;13.508;2022-10-01T03:29:27;6.31;99.99
69823;SHT31;57119;52.516;13.508;2022-10-01T03:31:53;6.29;99.99
69823;SHT31;57119;52.516;13.508;2022-10-01T03:34:19;6.35;99.99
69823;SHT31;57119;52.516;13.508;2022-10-01T03:36:44;6.29;99.99
69823;SHT31;57119;52.516;13.508;2022-10-01T03:39:12;6.20;99.99
69823;SHT31;57119;52.516;13.508;2022-10-01T03:41:37;6.32;99.99
69823;SHT31;57119;52.516;13.508;2022-10-01T03:44:03;6.32;99.99
69823;SHT31;57119;52.516;13.508;2022-10-01T03:46:29;6.28;99.99
69823;SHT31;57119;52.516;13.508;2022-10-01T03:48:57;6.28;99.99
69823;SHT31;57119;52.516;13.508;2022-10-01T03:51:27;6.22;99.99
69823;SHT31;57119;52.516;13.508;2022-10-01T03:53:53;6.21;99.99
69823;SHT31;57119;52.516;13.508;2022-10-01T03:56:18;6.18;99.99
69823;SHT31;57119;52.516;13.508;2022-10-01T03:58:44;6.22;99.99
69823;SHT31;57119;52.516;13.508;2022-10-01T04:01:09;6.16;99.99
69823;SHT31;57119;52.516;13.508;2022-10-01T04:03:34;6.14;99.99
69823;SHT31;57119;52.516;13.508;2022-10-01T04:05:59;6.35;99.99
69823;SHT31;57119;52.516;13.508;2022-10-01T04:08:25;6.34;99.99
69823;SHT31;57119;52.516;13.508;2022-10-01T04:10:50;6.35;99.99
69823;SHT31;57119;52.516;13.508;2022-10-01T04:13:16;6.39;99.99
69823;SHT31;57119;52.516;13.508;2022-10-01T04:15:42;6.46;99.99
69823;SHT31;57119;52.516;13.508;2022-10-01T04:18:08;6.61;99.99
69823;SHT31;57119;52.516;13.508;2022-10-01T04:20:35;6.64;99.99
69823;SHT31;57119;52.516;13.508;2022-10-01T04:23:02;6.87;99.99
69823;SHT31;57119;52.516;13.508;2022-10-01T04:25:27;6.90;99.99
69823;SHT31;57119;52.516;13.508;2022-10-01T04:28:01;7.01;99.99
69823;SHT31;57119;52.516;13.508;2022-10-01T04:30:30;7.06;99.99
69823;SHT31;57119;52.516;13.508;2022-10-01T04:32:55;6.97;99.99
69823;SHT31;57119;52.516;13.508;2022-10-01T04:35:21;7.13;99.98
69823;SHT31;57119;52.516;13.508;2022-10-01T04:37:47;7.15;99.94
69823;SHT31;57119;52.516;13.508;2022-10-01T04:40:14;7.30;99.23
69823;SHT31;57119;52.516;13.508;2022-10-01T04:42:40;7.25;99.22
69823;SHT31;57119;52.516;13.508;2022-10-01T04:45:07;7.23;99.56
69823;SHT31;57119;52.516;13.508;2022-10-01T04:47:33;7.28;99.34
69823;SHT31;57119;52.516;13.508;2022-10-01T04:49:58;7.35;98.77
69823;SHT31;57119;52.516;13.508;2022-10-01T04:52:23;7.35;98.75
69823;SHT31;57119;52.516;13.508;2022-10-01T04:54:49;7.27;99.33
69823;SHT31;57119;52.516;13.508;2022-10-01T04:57:16;7.28;99.07
69823;SHT31;57119;52.516;13.508;2022-10-01T04:59:42;7.36;98.61
69823;SHT31;57119;52.516;13.508;2022-10-01T05:02:07;7.28;99.26
69823;SHT31;57119;52.516;13.508;2022-10-01T05:04:32;7.48;98.32
69823;SHT31;57119;52.516;13.508;2022-10-01T05:06:58;7.51;98.20
69823;SHT31;57119;52.516;13.508;2022-10-01T05:09:23;7.56;97.81
69823;SHT31;57119;52.516;13.508;2022-10-01T05:11:48;7.56;97.91
69823;SHT31;57119;52.516;13.508;2022-10-01T05:14:16;7.65;97.54
69823;SHT31;57119;52.516;13.508;2022-10-01T05:16:43;7.68;97.62
69823;SHT31;57119;52.516;13.508;2022-10-01T05:19:08;7.65;97.55
69823;SHT31;57119;52.516;13.508;2022-10-01T05:21:35;7.75;97.27
69823;SHT31;57119;52.516;13.508;2022-10-01T05:24:00;7.73;97.22
69823;SHT31;57119;52.516;13.508;2022-10-01T05:26:25;7.75;97.32
69823;SHT31;57119;52.516;13.508;2022-10-01T05:28:51;7.76;97.55
69823;SHT31;57119;52.516;13.508;2022-10-01T05:31:18;7.82;96.83
69823;SHT31;57119;52.516;13.508;2022-10-01T05:33:43;7.81;97.10
69823;SHT31;57119;52.516;13.508;2022-10-01T05:36:08;7.94;96.54
69823;SHT31;57119;52.516;13.508;2022-10-01T05:38:33;7.89;96.77
69823;SHT31;57119;52.516;13.508;2022-10-01T05:41:04;7.97;96.55
69823;SHT31;57119;52.516;13.508;2022-10-01T05:43:30;8.06;95.99
69823;SHT31;57119;52.516;13.508;2022-10-01T05:45:59;8.02;96.33
69823;SHT31;57119;52.516;13.508;2022-10-01T05:48:24;8.07;95.96
69823;SHT31;57119;52.516;13.508;2022-10-01T05:50:50;8.12;95.95
69823;SHT31;57119;52.516;13.508;2022-10-01T05:53:15;8.16;95.65
69823;SHT31;57119;52.516;13.508;2022-10-01T05:55:41;8.21;95.61
69823;SHT31;57119;52.516;13.508;2022-10-01T05:58:09;8.27;95.49
69823;SHT31;57119;52.516;13.508;2022-10-01T06:00:35;8.34;95.39
69823;SHT31;57119;52.516;13.508;2022-10-01T06:03:02;8.47;95.00
69823;SHT31;57119;52.516;13.508;2022-10-01T06:05:29;8.51;94.55
69823;SHT31;57119;52.516;13.508;2022-10-01T06:07:55;8.60;94.36
69823;SHT31;57119;52.516;13.508;2022-10-01T06:10:22;8.69;94.33
69823;SHT31;57119;52.516;13.508;2022-10-01T06:12:48;8.75;93.98
69823;SHT31;57119;52.516;13.508;2022-10-01T06:15:14;8.79;93.71
69823;SHT31;57119;52.516;13.508;2022-10-01T06:17:40;8.98;93.37
69823;SHT31;57119;52.516;13.508;2022-10-01T06:20:10;8.92;93.20
69823;SHT31;57119;52.516;13.508;2022-10-01T06:22:36;8.96;93.12
69823;SHT31;57119;52.516;13.508;2022-10-01T06:25:02;9.02;93.15
69823;SHT31;57119;52.516;13.508;2022-10-01T06:27:28;9.13;92.58
69823;SHT31;57119;52.516;13.508;2022-10-01T06:29:53;9.17;92.34
69823;SHT31;57119;52.516;13.508;2022-10-01T06:32:18;9.22;92.51
69823;SHT31;57119;52.516;13.508;2022-10-01T06:34:44;9.27;91.94
69823;SHT31;57119;52.516;13.508;2022-10-01T06:37:09;9.36;91.75
69823;SHT31;57119;52.516;13.508;2022-10-01T06:39:34;9.34;91.70
69823;SHT31;57119;52.516;13.508;2022-10-01T06:42:00;9.34;91.94
69823;SHT31;57119;52.516;13.508;2022-10-01T06:44:25;9.37;91.51
69823;SHT31;57119;52.516;13.508;2022-10-01T06:46:50;9.41;92.02
69823;SHT31;57119;52.516;13.508;2022-10-01T06:49:17;9.46;91.39
69823;SHT31;57119;52.516;13.508;2022-10-01T06:51:45;9.52;91.37
69823;SHT31;57119;52.516;13.508;2022-10-01T06:54:28;9.62;91.40
69823;SHT31;57119;52.516;13.508;2022-10-01T06:56:54;9.57;91.18
69823;SHT31;57119;52.516;13.508;2022-10-01T06:59:19;9.59;90.98
69823;SHT31;57119;52.516;13.508;2022-10-01T07:01:48;9.73;91.01
69823;SHT31;57119;52.516;13.508;2022-10-01T07:04:14;9.67;91.07
69823;SHT31;57119;52.516;13.508;2022-10-01T07:06:39;9.74;90.88
69823;SHT31;57119;52.516;13.508;2022-10-01T07:09:05;9.70;91.03
69823;SHT31;57119;52.516;13.508;2022-10-01T07:11:30;9.73;90.78
69823;SHT31;57119;52.516;13.508;2022-10-01T07:13:55;9.74;90.95
69823;SHT31;57119;52.516;13.508;2022-10-01T07:16:22;9.75;91.23
69823;SHT31;57119;52.516;13.508;2022-10-01T07:18:47;9.75;90.66
69823;SHT31;57119;52.516;13.508;2022-10-01T07:21:13;9.78;91.00
69823;SHT31;57119;52.516;13.508;2022-10-01T07:23:38;9.79;90.90
69823;SHT31;57119;52.516;13.508;2022-10-01T07:26:05;9.92;90.54
69823;SHT31;57119;52.516;13.508;2022-10-01T07:28:32;9.78;91.41
69823;SHT31;57119;52.516;13.508;2022-10-01T07:31:01;9.85;90.75
69823;SHT31;57119;52.516;13.508;2022-10-01T07:33:27;10.01;90.12
69823;SHT31;57119;52.516;13.508;2022-10-01T07:35:53;10.09;89.99
69823;SHT31;57119;52.516;13.508;2022-10-01T07:38:18;10.03;90.26
69823;SHT31;57119;52.516;13.508;2022-10-01T07:40:49;10.22;90.03
69823;SHT31;57119;52.516;13.508;2022-10-01T07:43:15;10.17;89.73
69823;SHT31;57119;52.516;13.508;2022-10-01T07:45:40;10.35;89.55
69823;SHT31;57119;52.516;13.508;2022-10-01T07:48:06;10.46;89.34
69823;SHT31;57119;52.516;13.508;2022-10-01T07:50:32;10.50;88.95
69823;SHT31;57119;52.516;13.508;2022-10-01T07:52:58;10.61;88.98
69823;SHT31;57119;52.516;13.508;2022-10-01T07:55:25;10.70;88.45
69823;SHT31;57119;52.516;13.508;2022-10-01T07:57:58;10.68;88.20
69823;SHT31;57119;52.516;13.508;2022-10-01T08:00:27;10.97;87.71
69823;SHT31;57119;52.516;13.508;2022-10-01T08:02:54;11.02;87.37
69823;SHT31;57119;52.516;13.508;2022-10-01T08:05:25;11.00;87.11
69823;SHT31;57119;52.516;13.508;2022-10-01T08:07:51;10.98;87.38
69823;SHT31;57119;52.516;13.508;2022-10-01T08:10:18;11.11;87.07
69823;SHT31;57119;52.516;13.508;2022-10-01T08:12:43;11.15;86.84
69823;SHT31;57119;52.516;13.508;2022-10-01T08:15:11;11.31;86.27
69823;SHT31;57119;52.516;13.508;2022-10-01T08:17:36;11.39;86.08
69823;SHT31;57119;52.516;13.508;2022-10-01T08:20:03;11.47;85.76
69823;SHT31;57119;52.516;13.508;2022-10-01T08:22:29;11.53;85.33
69823;SHT31;57119;52.516;13.508;2022-10-01T08:24:54;11.59;85.44
69823;SHT31;57119;52.516;13.508;2022-10-01T08:27:22;11.58;85.55
69823;SHT31;57119;52.516;13.508;2022-10-01T08:29:48;11.47;85.52
69823;SHT31;57119;52.516;13.508;2022-10-01T08:32:13;11.65;85.06
69823;SHT31;57119;52.516;13.508;2022-10-01T08:34:38;11.58;85.26
69823;SHT31;57119;52.516;13.508;2022-10-01T08:37:04;11.49;85.50
69823;SHT31;57119;52.516;13.508;2022-10-01T08:39:29;11.65;85.47
69823;SHT31;57119;52.516;13.508;2022-10-01T08:42:09;11.66;85.26
69823;SHT31;57119;52.516;13.508;2022-10-01T08:44:42;11.69;85.27
69823;SHT31;57119;52.516;13.508;2022-10-01T08:47:30;11.79;85.11
69823;SHT31;57119;52.516;13.508;2022-10-01T08:50:11;11.91;84.48
69823;SHT31;57119;52.516;13.508;2022-10-01T08:52:54;12.02;84.36
69823;SHT31;57119;52.516;13.508;2022-10-01T08:55:24;12.14;84.26
69823;SHT31;57119;52.516;13.508;2022-10-01T08:57:53;12.21;84.05
69823;SHT31;57119;52.516;13.508;2022-10-01T09:00:21;12.42;83.00
69823;SHT31;57119;52.516;13.508;2022-10-01T09:02:47;12.56;82.74
69823;SHT31;57119;52.516;13.508;2022-10-01T09:05:24;12.77;82.05
69823;SHT31;57119;52.516;13.508;2022-10-01T09:10:45;12.94;81.40
69823;SHT31;57119;52.516;13.508;2022-10-01T09:13:27;13.18;81.24
69823;SHT31;57119;52.516;13.508;2022-10-01T09:16:07;13.15;81.20
69823;SHT31;57119;52.516;13.508;2022-10-01T09:21:17;12.89;81.66
69823;SHT31;57119;52.516;13.508;2022-10-01T09:24:02;13.06;81.06
69823;SHT31;57119;52.516;13.508;2022-10-01T09:26:29;13.07;81.46
69823;SHT31;57119;52.516;13.508;2022-10-01T09:28:54;13.27;80.82
69823;SHT31;57119;52.516;13.508;2022-10-01T09:31:24;13.21;80.44
69823;SHT31;57119;52.516;13.508;2022-10-01T09:33:57;13.23;80.28
69823;SHT31;57119;52.516;13.508;2022-10-01T09:39:27;13.59;79.52
69823;SHT31;57119;52.516;13.508;2022-10-01T09:41:53;13.57;78.91
69823;SHT31;57119;52.516;13.508;2022-10-01T09:44:26;13.69;78.82
69823;SHT31;57119;52.516;13.508;2022-10-01T09:46:53;13.95;77.49
69823;SHT31;57119;52.516;13.508;2022-10-01T09:49:32;14.06;77.29
69823;SHT31;57119;52.516;13.508;2022-10-01T09:52:03;13.63;78.36
69823;SHT31;57119;52.516;13.508;2022-10-01T09:54:40;13.52;79.32
69823;SHT31;57119;52.516;13.508;2022-10-01T09:57:21;13.35;80.41
69823;SHT31;57119;52.516;13.508;2022-10-01T09:59:57;13.21;81.06
69823;SHT31;57119;52.516;13.508;2022-10-01T10:02:32;13.10;81.04
69823;SHT31;57119;52.516;13.508;2022-10-01T10:05:05;13.04;80.89
69823;SHT31;57119;52.516;13.508;2022-10-01T10:07:31;12.85;81.21
69823;SHT31;57119;52.516;13.508;2022-10-01T10:10:16;12.83;82.39
69823;SHT31;57119;52.516;13.508;2022-10-01T10:12:44;12.60;82.59
69823;SHT31;57119;52.516;13.508;2022-10-01T10:15:21;12.56;83.86
69823;SHT31;57119;52.516;13.508;2022-10-01T10:17:48;12.52;84.40
69823;SHT31;57119;52.516;13.508;2022-10-01T10:20:27;12.41;84.73
69823;SHT31;57119;52.516;13.508;2022-10-01T10:23:04;12.28;85.94
69823;SHT31;57119;52.516;13.508;2022-10-01T10:25:30;12.29;86.03
69823;SHT31;57119;52.516;13.508;2022-10-01T10:27:55;12.14;87.36
69823;SHT31;57119;52.516;13.508;2022-10-01T10:30:24;12.05;88.00
69823;SHT31;57119;52.516;13.508;2022-10-01T10:32:51;11.93;88.81
69823;SHT31;57119;52.516;13.508;2022-10-01T10:35:22;11.74;90.22
69823;SHT31;57119;52.516;13.508;2022-10-01T10:37:52;11.60;90.48
69823;SHT31;57119;52.516;13.508;2022-10-01T10:40:21;11.49;92.24
69823;SHT31;57119;52.516;13.508;2022-10-01T10:42:52;11.38;92.76
69823;SHT31;57119;52.516;13.508;2022-10-01T10:45:22;11.35;93.52
69823;SHT31;57119;52.516;13.508;2022-10-01T10:47:52;11.36;94.02
69823;SHT31;57119;52.516;13.508;2022-10-01T10:50:38;11.26;94.49
69823;SHT31;57119;52.516;13.508;2022-10-01T10:53:17;11.14;95.34
69823;SHT31;57119;52.516;13.508;2022-10-01T10:55:55;11.16;95.52
69823;SHT31;57119;52.516;13.508;2022-10-01T10:58:30;11.11;96.03
69823;SHT31;57119;52.516;13.508;2022-10-01T11:00:59;11.12;96.44
69823;SHT31;57119;52.516;13.508;2022-10-01T11:03:28;11.16;96.71
69823;SHT31;57119;52.516;13.508;2022-10-01T11:05:59;11.21;96.82
69823;SHT31;57119;52.516;13.508;2022-10-01T11:08:26;11.19;96.20
69823;SHT31;57119;52.516;13.508;2022-10-01T11:13:42;11.11;97.11
69823;SHT31;57119;52.516;13.508;2022-10-01T11:19:21;11.14;96.72
69823;SHT31;57119;52.516;13.508;2022-10-01T11:22:09;11.07;97.58
69823;SHT31;57119;52.516;13.508;2022-10-01T11:27:44;11.14;97.83
69823;SHT31;57119;52.516;13.508;2022-10-01T11:30:19;11.12;97.70
69823;SHT31;57119;52.516;13.508;2022-10-01T11:35:35;11.14;97.29
69823;SHT31;57119;52.516;13.508;2022-10-01T11:41:14;11.26;97.72
69823;SHT31;57119;52.516;13.508;2022-10-01T11:43:48;11.31;96.94
69823;SHT31;57119;52.516;13.508;2022-10-01T11:48:56;11.36;97.06
69823;SHT31;57119;52.516;13.508;2022-10-01T11:51:45;11.32;96.15
69823;SHT31;57119;52.516;13.508;2022-10-01T11:54:13;11.31;97.10
69823;SHT31;57119;52.516;13.508;2022-10-01T11:56:44;11.26;96.84
69823;SHT31;57119;52.516;13.508;2022-10-01T12:04:58;11.23;96.84
69823;SHT31;57119;52.516;13.508;2022-10-01T12:07:34;11.18;96.82
69823;SHT31;57119;52.516;13.508;2022-10-01T12:10:08;11.16;97.14
69823;SHT31;57119;52.516;13.508;2022-10-01T12:12:59;11.23;97.16
69823;SHT31;57119;52.516;13.508;2022-10-01T12:15:53;11.23;96.25
69823;SHT31;57119;52.516;13.508;2022-10-01T12:18:26;11.29;96.22
69823;SHT31;57119;52.516;13.508;2022-10-01T12:20:57;11.31;96.40
69823;SHT31;57119;52.516;13.508;2022-10-01T12:23:29;11.36;95.69
69823;SHT31;57119;52.516;13.508;2022-10-01T12:26:10;11.39;95.67
69823;SHT31;57119;52.516;13.508;2022-10-01T12:34:59;11.43;96.05
69823;SHT31;57119;52.516;13.508;2022-10-01T12:45:55;11.19;98.44
69823;SHT31;57119;52.516;13.508;2022-10-01T12:48:38;11.15;98.73
69823;SHT31;57119;52.516;13.508;2022-10-01T12:51:21;11.02;99.44
69823;SHT31;57119;52.516;13.508;2022-10-01T12:54:18;11.00;99.83
69823;SHT31;57119;52.516;13.508;2022-10-01T13:02:24;10.94;99.99
69823;SHT31;57119;52.516;13.508;2022-10-01T13:13:05;11.00;99.98
69823;SHT31;57119;52.516;13.508;2022-10-01T13:15:40;11.04;99.99
69823;SHT31;57119;52.516;13.508;2022-10-01T13:23:49;11.12;99.83
69823;SHT31;57119;52.516;13.508;2022-10-01T13:26:47;11.11;99.97
69823;SHT31;57119;52.516;13.508;2022-10-01T13:29:39;11.12;99.75
69823;SHT31;57119;52.516;13.508;2022-10-01T13:34:53;11.14;99.45
69823;SHT31;57119;52.516;13.508;2022-10-01T13:39:54;11.36;98.92
69823;SHT31;57119;52.516;13.508;2022-10-01T13:42:23;11.31;99.71
69823;SHT31;57119;52.516;13.508;2022-10-01T13:44:53;11.39;98.75
69823;SHT31;57119;52.516;13.508;2022-10-01T13:47:20;11.46;98.51
69823;SHT31;57119;52.516;13.508;2022-10-01T13:50:22;11.39;98.91
69823;SHT31;57119;52.516;13.508;2022-10-01T13:52:52;11.39;98.65
69823;SHT31;57119;52.516;13.508;2022-10-01T13:55:29;11.40;98.67
69823;SHT31;57119;52.516;13.508;2022-10-01T13:58:06;11.52;98.84
69823;SHT31;57119;52.516;13.508;2022-10-01T14:00:48;11.60;98.50
69823;SHT31;57119;52.516;13.508;2022-10-01T14:03:38;11.63;98.70
69823;SHT31;57119;52.516;13.508;2022-10-01T14:06:07;11.65;97.98
69823;SHT31;57119;52.516;13.508;2022-10-01T14:08:42;11.66;98.45
69823;SHT31;57119;52.516;13.508;2022-10-01T14:11:13;11.58;98.46
69823;SHT31;57119;52.516;13.508;2022-10-01T14:14:10;11.62;98.17
69823;SHT31;57119;52.516;13.508;2022-10-01T14:16:54;11.58;98.41
69823;SHT31;57119;52.516;13.508;2022-10-01T14:19:24;11.62;98.40
69823;SHT31;57119;52.516;13.508;2022-10-01T14:22:02;11.69;98.92
69823;SHT31;57119;52.516;13.508;2022-10-01T14:27:30;11.77;98.19
69823;SHT31;57119;52.516;13.508;2022-10-01T14:30:44;11.84;98.18
69823;SHT31;57119;52.516;13.508;2022-10-01T14:36:27;11.86;98.30
69823;SHT31;57119;52.516;13.508;2022-10-01T14:39:19;11.86;98.42
69823;SHT31;57119;52.516;13.508;2022-10-01T14:41:48;11.91;98.32
69823;SHT31;57119;52.516;13.508;2022-10-01T14:44:22;12.00;98.67
69823;SHT31;57119;52.516;13.508;2022-10-01T14:46:50;11.91;98.61
69823;SHT31;57119;52.516;13.508;2022-10-01T14:49:23;11.89;99.38
69823;SHT31;57119;52.516;13.508;2022-10-01T14:52:03;11.95;99.20
69823;SHT31;57119;52.516;13.508;2022-10-01T14:54:42;11.86;99.74
69823;SHT31;57119;52.516;13.508;2022-10-01T14:57:14;11.86;99.92
69823;SHT31;57119;52.516;13.508;2022-10-01T14:59:42;11.87;99.82
69823;SHT31;57119;52.516;13.508;2022-10-01T15:02:17;11.94;99.57
69823;SHT31;57119;52.516;13.508;2022-10-01T15:04:47;12.00;99.28
69823;SHT31;57119;52.516;13.508;2022-10-01T15:07:13;12.01;99.39
69823;SHT31;57119;52.516;13.508;2022-10-01T15:09:42;12.00;99.56
69823;SHT31;57119;52.516;13.508;2022-10-01T15:12:08;12.01;99.66
69823;SHT31;57119;52.516;13.508;2022-10-01T15:14:35;12.05;99.11
69823;SHT31;57119;52.516;13.508;2022-10-01T15:17:05;12.14;98.89
69823;SHT31;57119;52.516;13.508;2022-10-01T15:19:32;12.16;99.01
69823;SHT31;57119;52.516;13.508;2022-10-01T15:22:01;12.20;99.05
69823;SHT31;57119;52.516;13.508;2022-10-01T15:24:42;12.21;98.75
69823;SHT31;57119;52.516;13.508;2022-10-01T15:27:10;12.18;98.73
69823;SHT31;57119;52.516;13.508;2022-10-01T15:29:37;12.22;98.93
69823;SHT31;57119;52.516;13.508;2022-10-01T15:32:02;12.34;99.01
69823;SHT31;57119;52.516;13.508;2022-10-01T15:34:30;12.45;98.45
69823;SHT31;57119;52.516;13.508;2022-10-01T15:36:57;12.53;98.01
69823;SHT31;57119;52.516;13.508;2022-10-01T15:39:30;12.53;97.57
69823;SHT31;57119;52.516;13.508;2022-10-01T15:41:58;12.45;97.92
69823;SHT31;57119;52.516;13.508;2022-10-01T15:44:45;12.38;98.35
69823;SHT31;57119;52.516;13.508;2022-10-01T15:47:37;12.35;98.45
69823;SHT31;57119;52.516;13.508;2022-10-01T15:55:18;12.75;96.39
69823;SHT31;57119;52.516;13.508;2022-10-01T15:57:47;13.07;96.21
69823;SHT31;57119;52.516;13.508;2022-10-01T16:00:22;13.06;95.42
69823;SHT31;57119;52.516;13.508;2022-10-01T16:02:48;12.83;95.85
69823;SHT31;57119;52.516;13.508;2022-10-01T16:05:17;12.67;96.55
69823;SHT31;57119;52.516;13.508;2022-10-01T16:07:46;12.39;97.47
69823;SHT31;57119;52.516;13.508;2022-10-01T16:10:25;12.31;97.74
69823;SHT31;57119;52.516;13.508;2022-10-01T16:12:52;12.22;97.95
69823;SHT31;57119;52.516;13.508;2022-10-01T16:15:28;12.07;98.60
69823;SHT31;57119;52.516;13.508;2022-10-01T16:17:58;12.02;98.74
69823;SHT31;57119;52.516;13.508;2022-10-01T16:20:40;11.90;99.22
69823;SHT31;57119;52.516;13.508;2022-10-01T16:23:32;11.80;99.58
69823;SHT31;57119;52.516;13.508;2022-10-01T16:25:58;11.77;99.44
69823;SHT31;57119;52.516;13.508;2022-10-01T16:28:25;11.73;99.58
69823;SHT31;57119;52.516;13.508;2022-10-01T16:30:51;11.74;99.68
69823;SHT31;57119;52.516;13.508;2022-10-01T16:33:17;11.67;99.84
69823;SHT31;57119;52.516;13.508;2022-10-01T16:35:42;11.63;99.89
69823;SHT31;57119;52.516;13.508;2022-10-01T16:38:12;11.58;99.94
69823;SHT31;57119;52.516;13.508;2022-10-01T16:40:44;11.56;99.99
69823;SHT31;57119;52.516;13.508;2022-10-01T16:43:19;11.49;99.99
69823;SHT31;57119;52.516;13.508;2022-10-01T16:45:47;11.44;99.99
69823;SHT31;57119;52.516;13.508;2022-10-01T16:48:20;11.36;99.99
69823;SHT31;57119;52.516;13.508;2022-10-01T16:50:48;11.38;99.99
69823;SHT31;57119;52.516;13.508;2022-10-01T16:53:17;11.38;99.99
69823;SHT31;57119;52.516;13.508;2022-10-01T16:55:44;11.32;99.99
69823;SHT31;57119;52.516;13.508;2022-10-01T16:58:10;11.22;99.99
69823;SHT31;57119;52.516;13.508;2022-10-01T17:00:36;11.15;99.99
69823;SHT31;57119;52.516;13.508;2022-10-01T17:03:06;11.04;99.99
69823;SHT31;57119;52.516;13.508;2022-10-01T17:05:35;10.95;99.99
69823;SHT31;57119;52.516;13.508;2022-10-01T17:08:01;10.98;99.99
69823;SHT31;57119;52.516;13.508;2022-10-01T17:10:38;10.88;99.99
69823;SHT31;57119;52.516;13.508;2022-10-01T17:13:05;10.78;99.99
69823;SHT31;57119;52.516;13.508;2022-10-01T17:15:30;10.85;99.99